Heloise — 3FLA7 — position and weather

sailwx.info

Track history (hours):
 
Tides and Currents Weather Stations Pressure Air Temp Water Temp Dewpoint Dewpoint Depression Visibility Wind Speed Wind Dir Waves Ship Positions

Heloise

Last reported at 2015-Feb-27 02:33 UTC. Time now 2015-Mar-01 23:31 UTC.
Position N 36°37' E 013°50'.

Length 186 m; draft 9.7 m.

Type: Cargo ship. MMSI: 352302000.

Date/timePositionNaut miles runAvg speedWind from/ knotsBaromVisibWave heightAir tempDewpointWater temp
2015-Feb-27 02:33N 36°37' E 013°50'1413.0
2015-Feb-27 01:29N 36°34' E 014°06'1213.1
2015-Feb-27 00:32N 36°31' E 014°21'1313.0
2015-Feb-26 23:32N 36°28' E 014°37'  
2015-Feb-24 06:32N 40°56' E 028°53'7 7.2
2015-Feb-24 05:33N 41°00' E 028°60'355 8.2
2015-Feb-22 10:24N 46°36' E 031°43'8 9.3
2015-Feb-22 09:32N 46°38' E 031°54'8 8.1
2015-Feb-22 08:33N 46°46' E 031°53'4 4.3
2015-Feb-22 07:33N 46°50' E 031°55'0 0.1
2015-Feb-22 06:33N 46°50' E 031°55'0 0.0
2015-Feb-22 05:33N 46°50' E 031°55'3 0.4
2015-Feb-21 23:32N 46°51' E 031°59'0 0.1
2015-Feb-21 22:32N 46°51' E 031°59'0 0.0
2015-Feb-21 21:32N 46°51' E 031°59'0 0.0
2015-Feb-21 20:32N 46°51' E 031°59'0 0.0
2015-Feb-21 19:32N 46°51' E 031°59'0 0.0
2015-Feb-21 18:32N 46°51' E 031°59'0 0.0
2015-Feb-21 17:32N 46°51' E 031°59'0 0.0
2015-Feb-21 16:32N 46°51' E 031°59'0 0.0
2015-Feb-21 15:32N 46°51' E 031°59'0 0.0
2015-Feb-21 14:32N 46°51' E 031°59'0 0.0
2015-Feb-21 13:32N 46°51' E 031°59'0 0.0
2015-Feb-21 12:32N 46°51' E 031°59'0 0.0
2015-Feb-21 11:32N 46°51' E 031°59'0 0.0
2015-Feb-21 10:32N 46°51' E 031°59'0 0.0
2015-Feb-21 09:32N 46°51' E 031°59'0 0.0
2015-Feb-21 08:32N 46°51' E 031°59'0 0.0
2015-Feb-21 07:32N 46°51' E 031°59'0 0.0
2015-Feb-21 06:32N 46°51' E 031°59'0 0.0
2015-Feb-21 05:32N 46°51' E 031°59'0 0.0
2015-Feb-21 04:32N 46°51' E 031°59'0 0.0
2015-Feb-21 03:32N 46°51' E 031°59'0 0.0
2015-Feb-21 02:32N 46°51' E 031°59'0 0.0
2015-Feb-21 01:32N 46°51' E 031°59'0 0.0
2015-Feb-21 00:32N 46°51' E 031°59'0 0.0
2015-Feb-20 23:32N 46°51' E 031°59'0 0.0
2015-Feb-20 22:32N 46°51' E 031°59'0 0.0
2015-Feb-20 21:32N 46°51' E 031°59'0 0.0
2015-Feb-20 20:32N 46°51' E 031°59'0 0.0
2015-Feb-20 19:32N 46°51' E 031°59'0 0.0
2015-Feb-20 18:32N 46°51' E 031°59'0 0.0
2015-Feb-20 17:32N 46°51' E 031°59'0 0.0
2015-Feb-20 16:32N 46°51' E 031°59'0 0.0
2015-Feb-20 15:32N 46°51' E 031°59'0 0.0
2015-Feb-20 14:32N 46°51' E 031°59'0 0.0
2015-Feb-20 13:32N 46°51' E 031°59'0 0.0
2015-Feb-20 12:32N 46°51' E 031°59'0 0.0
2015-Feb-20 11:32N 46°51' E 031°59'0 0.0
2015-Feb-20 10:32N 46°51' E 031°59'0 0.0
2015-Feb-20 09:32N 46°51' E 031°59'0 0.0
2015-Feb-20 08:32N 46°51' E 031°59'0 0.0
2015-Feb-20 07:32N 46°51' E 031°59'0 0.0
2015-Feb-20 06:32N 46°51' E 031°59'0 0.0
2015-Feb-20 05:32N 46°51' E 031°59'0 0.0
2015-Feb-20 04:32N 46°51' E 031°59'0 0.0
2015-Feb-20 03:32N 46°51' E 031°59'0 0.0
2015-Feb-20 02:32N 46°51' E 031°59'0 0.0
2015-Feb-20 01:32N 46°51' E 031°59'0 0.1
2015-Feb-20 00:33N 46°51' E 031°59'5 5.1
2015-Feb-19 23:33N 46°48' E 031°53'1110.9
2015-Feb-19 22:33N 46°37' E 031°52'37 1.9
2015-Feb-19 03:15N 46°18' E 031°06'122 7.5
2015-Feb-18 11:06N 44°45' E 032°59'510.2
2015-Feb-18 10:33N 44°41' E 033°04'1413.7
2015-Feb-18 09:33N 44°31' E 033°18'4113.6
2015-Feb-18 06:32N 44°06' E 034°03'1413.8
2015-Feb-18 05:33N 44°01' E 034°20'1413.8
2015-Feb-18 04:32N 43°60' E 034°40'142 6.8
2015-Feb-17 07:33N 44°14' E 037°57'2 1.8
2015-Feb-17 06:32N 44°16' E 037°58'2 1.9
2015-Feb-17 05:33N 44°18' E 037°58'2 1.8
2015-Feb-17 04:33N 44°19' E 037°59'8 7.4
2015-Feb-17 03:32N 44°16' E 037°50'  
Track history (hours):
 
Tides and Currents Weather Stations Pressure Air Temp Water Temp Dewpoint Dewpoint Depression Visibility Wind Speed Wind Dir Waves Ship Positions

Heloise

Last reported at 2015-Feb-27 02:33 UTC. Time now 2015-Mar-01 23:31 UTC.
Position N 36°37' E 013°50'.

Length 186 m; draft 9.7 m.

Type: Cargo ship. MMSI: 352302000.

Date/timePositionNaut miles runAvg speedWind from/ knotsBaromVisibWave heightAir tempDewpointWater temp
2015-Feb-27 02:33N 36°37' E 013°50'1413.0
2015-Feb-27 01:29N 36°34' E 014°06'1213.1
2015-Feb-27 00:32N 36°31' E 014°21'1313.0
2015-Feb-26 23:32N 36°28' E 014°37'  
2015-Feb-24 06:32N 40°56' E 028°53'7 7.2
2015-Feb-24 05:33N 41°00' E 028°60'355 8.2
2015-Feb-22 10:24N 46°36' E 031°43'8 9.3
2015-Feb-22 09:32N 46°38' E 031°54'8 8.1
2015-Feb-22 08:33N 46°46' E 031°53'4 4.3
2015-Feb-22 07:33N 46°50' E 031°55'0 0.1
2015-Feb-22 06:33N 46°50' E 031°55'0 0.0
2015-Feb-22 05:33N 46°50' E 031°55'3 0.4
2015-Feb-21 23:32N 46°51' E 031°59'0 0.1
2015-Feb-21 22:32N 46°51' E 031°59'0 0.0
2015-Feb-21 21:32N 46°51' E 031°59'0 0.0
2015-Feb-21 20:32N 46°51' E 031°59'0 0.0
2015-Feb-21 19:32N 46°51' E 031°59'0 0.0
2015-Feb-21 18:32N 46°51' E 031°59'0 0.0
2015-Feb-21 17:32N 46°51' E 031°59'0 0.0
2015-Feb-21 16:32N 46°51' E 031°59'0 0.0
2015-Feb-21 15:32N 46°51' E 031°59'0 0.0
2015-Feb-21 14:32N 46°51' E 031°59'0 0.0
2015-Feb-21 13:32N 46°51' E 031°59'0 0.0
2015-Feb-21 12:32N 46°51' E 031°59'0 0.0
2015-Feb-21 11:32N 46°51' E 031°59'0 0.0
2015-Feb-21 10:32N 46°51' E 031°59'0 0.0
2015-Feb-21 09:32N 46°51' E 031°59'0 0.0
2015-Feb-21 08:32N 46°51' E 031°59'0 0.0
2015-Feb-21 07:32N 46°51' E 031°59'0 0.0
2015-Feb-21 06:32N 46°51' E 031°59'0 0.0
2015-Feb-21 05:32N 46°51' E 031°59'0 0.0
2015-Feb-21 04:32N 46°51' E 031°59'0 0.0
2015-Feb-21 03:32N 46°51' E 031°59'0 0.0
2015-Feb-21 02:32N 46°51' E 031°59'0 0.0
2015-Feb-21 01:32N 46°51' E 031°59'0 0.0
2015-Feb-21 00:32N 46°51' E 031°59'0 0.0
2015-Feb-20 23:32N 46°51' E 031°59'0 0.0
2015-Feb-20 22:32N 46°51' E 031°59'0 0.0
2015-Feb-20 21:32N 46°51' E 031°59'0 0.0
2015-Feb-20 20:32N 46°51' E 031°59'0 0.0
2015-Feb-20 19:32N 46°51' E 031°59'0 0.0
2015-Feb-20 18:32N 46°51' E 031°59'0 0.0
2015-Feb-20 17:32N 46°51' E 031°59'0 0.0
2015-Feb-20 16:32N 46°51' E 031°59'0 0.0
2015-Feb-20 15:32N 46°51' E 031°59'0 0.0
2015-Feb-20 14:32N 46°51' E 031°59'0 0.0
2015-Feb-20 13:32N 46°51' E 031°59'0 0.0
2015-Feb-20 12:32N 46°51' E 031°59'0 0.0
2015-Feb-20 11:32N 46°51' E 031°59'0 0.0
2015-Feb-20 10:32N 46°51' E 031°59'0 0.0
2015-Feb-20 09:32N 46°51' E 031°59'0 0.0
2015-Feb-20 08:32N 46°51' E 031°59'0 0.0
2015-Feb-20 07:32N 46°51' E 031°59'0 0.0
2015-Feb-20 06:32N 46°51' E 031°59'0 0.0
2015-Feb-20 05:32N 46°51' E 031°59'0 0.0
2015-Feb-20 04:32N 46°51' E 031°59'0 0.0
2015-Feb-20 03:32N 46°51' E 031°59'0 0.0
2015-Feb-20 02:32N 46°51' E 031°59'0 0.0
2015-Feb-20 01:32N 46°51' E 031°59'0 0.1
2015-Feb-20 00:33N 46°51' E 031°59'5 5.1
2015-Feb-19 23:33N 46°48' E 031°53'1110.9
2015-Feb-19 22:33N 46°37' E 031°52'37 1.9
2015-Feb-19 03:15N 46°18' E 031°06'122 7.5
2015-Feb-18 11:06N 44°45' E 032°59'510.2
2015-Feb-18 10:33N 44°41' E 033°04'1413.7
2015-Feb-18 09:33N 44°31' E 033°18'4113.6
2015-Feb-18 06:32N 44°06' E 034°03'1413.8
2015-Feb-18 05:33N 44°01' E 034°20'1413.8
2015-Feb-18 04:32N 43°60' E 034°40'142 6.8
2015-Feb-17 07:33N 44°14' E 037°57'2 1.8
2015-Feb-17 06:32N 44°16' E 037°58'2 1.9
2015-Feb-17 05:33N 44°18' E 037°58'2 1.8
2015-Feb-17 04:33N 44°19' E 037°59'8 7.4
2015-Feb-17 03:32N 44°16' E 037°50'  

Dump ship's entire track history